createdAt,value
2022-11-30T00:03:34.501Z,14.93
2022-11-30T00:08:40.112Z,14.60
2022-11-30T00:13:43.933Z,15.88
2022-11-30T00:18:47.616Z,14.38
2022-11-30T00:23:52.693Z,14.50
2022-11-30T00:28:57.128Z,14.27
2022-11-30T00:34:00.956Z,13.95
2022-11-30T00:39:06.387Z,12.52
2022-11-30T00:44:10.091Z,13.52
2022-11-30T00:49:13.766Z,13.45
2022-11-30T00:54:19.007Z,13.63
2022-11-30T00:59:22.653Z,12.68
2022-11-30T01:04:26.448Z,11.68
2022-11-30T01:09:31.532Z,11.20
2022-11-30T01:14:35.270Z,12.15
2022-11-30T01:19:38.985Z,11.18
2022-11-30T01:24:44.235Z,12.02
2022-11-30T01:29:48.007Z,12.45
2022-11-30T01:34:51.688Z,11.73
2022-11-30T01:39:56.746Z,12.77
2022-11-30T01:45:01.870Z,12.73
2022-11-30T01:50:10.149Z,12.13
2022-11-30T01:55:21.870Z,12.18
2022-11-30T02:00:26.051Z,11.85
2022-11-30T02:05:30.160Z,11.82
2022-11-30T02:10:39.176Z,12.55
2022-11-30T02:15:50.863Z,13.68
2022-11-30T02:21:06.155Z,12.35
2022-11-30T02:26:27.339Z,12.95
2022-11-30T02:31:39.251Z,12.02
2022-11-30T02:36:44.015Z,11.88
2022-11-30T02:41:48.127Z,13.07
2022-11-30T02:47:08.326Z,12.32
2022-11-30T02:52:12.990Z,12.45
2022-11-30T02:57:16.780Z,12.70
2022-11-30T03:02:21.979Z,11.93
2022-11-30T03:07:25.950Z,12.32
2022-11-30T03:12:30.506Z,12.77
2022-11-30T03:17:35.524Z,10.88
2022-11-30T03:22:39.421Z,11.52
2022-11-30T03:27:43.299Z,11.05
2022-11-30T03:32:48.378Z,11.43
2022-11-30T03:37:52.190Z,10.20
2022-11-30T03:42:56.021Z,10.40
2022-11-30T03:48:01.189Z,11.80
2022-11-30T03:53:04.892Z,10.88
2022-11-30T03:58:08.542Z,10.55
2022-11-30T04:03:13.722Z,12.00
2022-11-30T04:08:17.474Z,12.45
2022-11-30T04:13:21.523Z,12.10
2022-11-30T04:18:28.475Z,11.85
2022-11-30T04:23:33.847Z,12.38
2022-11-30T04:28:37.600Z,12.88
2022-11-30T04:33:42.759Z,11.20
2022-11-30T04:38:46.472Z,11.45
2022-11-30T04:43:50.255Z,11.00
2022-11-30T04:48:55.315Z,11.25
2022-11-30T04:53:59.050Z,10.48
2022-11-30T04:59:03.092Z,10.32
2022-11-30T05:04:08.212Z,9.88
2022-11-30T05:09:11.995Z,10.40
2022-11-30T05:14:15.786Z,10.05
2022-11-30T05:19:20.841Z,10.65
2022-11-30T05:24:24.539Z,10.23
2022-11-30T05:29:28.268Z,10.35
2022-11-30T05:34:49.449Z,9.38
2022-11-30T05:39:54.179Z,9.50
2022-11-30T05:44:57.975Z,10.43
2022-11-30T05:50:03.056Z,9.75
2022-11-30T05:55:07.462Z,9.25
2022-11-30T06:00:12.042Z,8.63
2022-11-30T06:05:17.467Z,8.52
2022-11-30T06:10:21.181Z,8.70
2022-11-30T06:15:24.811Z,8.68
2022-11-30T06:20:29.893Z,8.55
2022-11-30T06:25:37.179Z,9.55
2022-11-30T06:30:41.223Z,9.50
2022-11-30T06:35:48.462Z,9.93
2022-11-30T06:40:52.182Z,8.77
2022-11-30T06:45:55.849Z,9.63
2022-11-30T06:51:01.307Z,9.38
2022-11-30T06:56:10.327Z,9.88
2022-11-30T07:01:16.330Z,9.65
2022-11-30T07:06:21.452Z,9.23
2022-11-30T07:11:25.177Z,9.80
2022-11-30T07:16:29.204Z,9.93
2022-11-30T07:21:34.292Z,10.52
2022-11-30T07:26:40.642Z,9.45
2022-11-30T07:31:44.450Z,9.37
2022-11-30T07:36:50.234Z,9.32
2022-11-30T07:41:53.921Z,10.07
2022-11-30T07:46:57.555Z,9.13
2022-11-30T07:52:04.602Z,9.82
2022-11-30T08:02:13.282Z,9.95
2022-11-30T08:07:18.750Z,9.90
2022-11-30T08:12:22.675Z,9.55
2022-11-30T08:17:29.457Z,9.35
2022-11-30T08:22:35.432Z,10.40
2022-11-30T08:27:39.660Z,10.45
2022-11-30T08:32:43.741Z,10.40
2022-11-30T08:37:51.044Z,10.35
2022-11-30T08:42:55.212Z,10.23
2022-11-30T08:47:59.095Z,10.10
2022-11-30T08:53:06.508Z,9.30
2022-11-30T08:58:10.467Z,8.93
2022-11-30T09:03:14.156Z,8.27
2022-11-30T09:08:19.770Z,9.10
2022-11-30T09:13:23.610Z,9.70
2022-11-30T09:18:27.408Z,9.98
2022-11-30T09:23:32.592Z,10.52
2022-11-30T09:28:37.000Z,12.02
2022-11-30T09:33:41.221Z,12.73
2022-11-30T09:38:47.040Z,14.48
2022-11-30T09:44:19.456Z,15.65
2022-11-30T09:49:28.641Z,17.13
2022-11-30T09:54:38.978Z,17.95
2022-11-30T09:59:50.334Z,18.35
2022-11-30T10:04:54.058Z,18.77
2022-11-30T10:15:38.212Z,18.52
2022-11-30T10:20:56.141Z,17.65
2022-11-30T10:26:07.407Z,18.27
2022-11-30T10:31:12.069Z,18.95
2022-11-30T10:36:24.992Z,17.55
2022-11-30T10:41:33.303Z,17.90
2022-11-30T10:46:40.962Z,16.23
2022-11-30T10:51:52.072Z,17.20
2022-11-30T10:56:58.283Z,16.08
2022-11-30T11:02:02.807Z,16.00
2022-11-30T11:07:11.080Z,16.40
2022-11-30T11:12:20.261Z,15.57
2022-11-30T11:17:26.453Z,15.40
2022-11-30T11:22:32.667Z,15.67
2022-11-30T11:27:42.951Z,15.75
2022-11-30T11:33:00.191Z,14.63
2022-11-30T11:38:05.397Z,14.63
2022-11-30T11:43:18.393Z,14.88
2022-11-30T11:48:31.576Z,14.05
2022-11-30T11:53:53.083Z,13.20
2022-11-30T11:59:01.831Z,13.05
2022-11-30T12:04:18.461Z,12.95
2022-11-30T12:09:28.665Z,12.20
2022-11-30T12:14:35.811Z,13.43
2022-11-30T12:25:06.089Z,12.32
2022-11-30T12:30:20.183Z,12.30
2022-11-30T12:35:35.757Z,12.68
2022-11-30T12:40:49.048Z,11.98
2022-11-30T12:46:00.892Z,13.38
2022-11-30T12:51:14.779Z,12.27
2022-11-30T12:56:31.802Z,12.35
2022-11-30T13:01:49.836Z,12.40
2022-11-30T13:06:59.767Z,11.60
2022-11-30T13:12:08.903Z,10.98
2022-11-30T13:17:19.671Z,12.15
2022-11-30T13:22:31.995Z,11.18
2022-11-30T13:27:45.897Z,12.38
2022-11-30T13:32:59.309Z,11.82
2022-11-30T13:38:28.611Z,11.75
2022-11-30T13:43:30.183Z,11.32
2022-11-30T13:48:39.786Z,11.98
2022-11-30T13:53:44.154Z,11.88
2022-11-30T13:59:23.306Z,11.25
2022-11-30T14:04:35.234Z,12.98
2022-11-30T14:09:59.977Z,12.30
2022-11-30T14:15:23.949Z,13.00
2022-11-30T14:20:38.024Z,12.65
2022-11-30T14:25:48.547Z,12.50
2022-11-30T14:30:52.687Z,12.35
2022-11-30T14:36:01.080Z,12.82
2022-11-30T14:41:05.067Z,12.63
2022-11-30T14:46:18.788Z,12.77
2022-11-30T14:51:23.839Z,11.73
2022-11-30T14:56:34.226Z,12.77
2022-11-30T15:01:40.600Z,13.10
2022-11-30T15:06:45.905Z,13.27
2022-11-30T15:11:51.387Z,13.27
2022-11-30T15:16:57.176Z,12.85
2022-11-30T15:22:02.336Z,13.95
2022-11-30T15:27:11.374Z,12.48
2022-11-30T15:32:18.671Z,12.85
2022-11-30T15:42:39.810Z,11.98
2022-11-30T15:47:43.512Z,11.02
2022-11-30T15:52:51.021Z,10.82
2022-11-30T15:57:59.843Z,11.43
2022-11-30T16:03:10.360Z,11.27
2022-11-30T16:08:19.645Z,12.05
2022-11-30T16:13:25.381Z,11.73
2022-11-30T16:18:29.902Z,11.55
2022-11-30T16:23:36.124Z,11.57
2022-11-30T16:28:39.859Z,11.07
2022-11-30T16:33:43.522Z,11.98
2022-11-30T16:38:50.775Z,11.55
2022-11-30T16:43:56.129Z,12.38
2022-11-30T16:48:59.892Z,10.93
2022-11-30T16:54:05.373Z,12.00
2022-11-30T16:59:16.242Z,11.18
2022-11-30T17:04:22.828Z,12.43
2022-11-30T17:15:36.396Z,12.68
2022-11-30T17:20:40.707Z,12.30
2022-11-30T17:25:47.376Z,12.80
2022-11-30T17:30:52.134Z,13.00
2022-11-30T17:36:00.066Z,13.98
2022-11-30T17:41:18.353Z,12.70
2022-11-30T17:46:23.316Z,13.63
2022-11-30T17:51:29.314Z,13.50
2022-11-30T17:56:35.971Z,13.95
2022-11-30T18:01:41.693Z,13.43
2022-11-30T18:06:46.672Z,13.23
2022-11-30T18:11:52.045Z,13.18
2022-11-30T18:16:55.973Z,12.57
2022-11-30T18:22:00.003Z,12.43
2022-11-30T18:27:08.805Z,12.85
2022-11-30T18:32:15.640Z,12.77
2022-11-30T18:37:22.029Z,13.27
2022-11-30T18:42:27.759Z,11.68
2022-11-30T18:47:32.143Z,13.25
2022-11-30T18:52:36.200Z,12.18
2022-11-30T18:57:44.217Z,12.90
2022-11-30T19:02:50.087Z,12.95
2022-11-30T19:07:54.645Z,12.73
2022-11-30T19:13:03.972Z,13.32
2022-11-30T19:18:10.683Z,11.93
2022-11-30T19:23:14.843Z,12.23
2022-11-30T19:28:22.040Z,12.25
2022-11-30T19:33:26.374Z,11.43
2022-11-30T19:38:33.517Z,12.15
2022-11-30T19:43:44.364Z,12.40
2022-11-30T19:49:02.481Z,13.35
2022-11-30T19:54:07.319Z,12.98
2022-11-30T19:59:16.733Z,12.52
2022-11-30T20:04:24.144Z,13.13
2022-11-30T20:09:30.006Z,12.82
2022-11-30T20:14:36.925Z,12.30
2022-11-30T20:19:40.832Z,12.95
2022-11-30T20:24:48.742Z,13.50
2022-11-30T20:29:59.963Z,13.82
2022-11-30T20:35:04.556Z,13.40
2022-11-30T20:40:11.620Z,12.20
2022-11-30T20:50:20.971Z,13.65
2022-11-30T20:55:26.818Z,13.77
2022-11-30T21:00:32.771Z,13.88
2022-11-30T21:05:41.184Z,13.30
2022-11-30T21:10:48.177Z,12.63
2022-11-30T21:21:04.586Z,13.52
2022-11-30T21:26:13.851Z,12.77
2022-11-30T21:31:24.283Z,13.95
2022-11-30T21:36:34.662Z,14.18
2022-11-30T21:41:47.314Z,13.05
2022-11-30T21:46:58.838Z,13.75
2022-11-30T21:52:09.688Z,15.02
2022-11-30T21:57:13.700Z,13.60
2022-11-30T22:02:22.235Z,14.73
2022-11-30T22:07:32.774Z,13.93
2022-11-30T22:12:39.006Z,13.40
2022-11-30T22:17:44.541Z,14.30
2022-11-30T22:22:49.091Z,12.88
2022-11-30T22:27:53.360Z,13.77
2022-11-30T22:33:02.756Z,14.05
2022-11-30T22:38:16.827Z,13.32
2022-11-30T22:43:21.049Z,12.65
2022-11-30T22:48:27.382Z,12.55
2022-11-30T22:53:31.935Z,13.10
2022-11-30T22:58:36.047Z,13.90
2022-11-30T23:03:43.027Z,13.18
2022-11-30T23:08:50.811Z,13.15
2022-11-30T23:13:55.333Z,13.18
2022-11-30T23:19:01.675Z,12.35
2022-11-30T23:24:10.009Z,12.40
2022-11-30T23:29:16.342Z,10.90
2022-11-30T23:34:22.828Z,11.55
2022-11-30T23:39:33.206Z,11.73
2022-11-30T23:44:39.454Z,12.40
2022-11-30T23:49:50.839Z,12.20
2022-11-30T23:54:55.745Z,13.13
